This is the latest recevied weather packets stored in our database for station/object CALDNA-WX. If no packets are shown the sender has not sent any weather packets the latest 10 day(s).
| Time | Temp. | Humidity | Pressure | Rain* | Wind** | Luminosity | Snow |
|---|---|---|---|---|---|---|---|
| 1778168727 | 8.89° C | 47% | 986.8 hPa | 0 mm | - | - | - |
| 1778167842 | 8.89° C | 49% | 986.7 hPa | 0 mm | - | - | - |
| 1778166927 | 8.89° C | 49% | 986.7 hPa | 0 mm | - | - | - |
| 1778166046 | 8.33° C | 49% | 986.7 hPa | 0 mm | - | - | - |
| 1778165125 | 8.33° C | 55% | 985 hPa | 0 mm | - | - | - |
| 1778164244 | 8.33° C | 57% | 985.8 hPa | 0 mm | - | - | - |
| 1778163326 | 7.78° C | 57% | 985.8 hPa | 0 mm | - | - | - |
| 1778162454 | 7.22° C | 57% | 985.8 hPa | 0 mm | - | - | - |
| 1778161526 | 7.22° C | 60% | 986.4 hPa | 0 mm | - | - | - |
| 1778160642 | 6.67° C | 60% | 986.4 hPa | 0 mm | - | - | - |
| 1778159722 | 6.67° C | 60% | 986.4 hPa | 0 mm | - | - | - |
| 1778158849 | 6.11° C | 60% | 986.4 hPa | 0 mm | - | - | - |
| 1778157926 | 5.56° C | 66% | 985.3 hPa | 0 mm | - | - | - |
| 1778157042 | 5.56° C | 66% | 985.4 hPa | 0 mm | - | - | - |
| 1778156121 | 5° C | 66% | 985.4 hPa | 0 mm | - | - | - |
| 1778155249 | 4.44° C | 69% | 985.2 hPa | 0 mm | - | - | - |
| 1778154326 | 3.89° C | 76% | 984.9 hPa | 0 mm | - | - | - |
| 1778153443 | 3.33° C | 76% | 984.9 hPa | 0 mm | - | - | - |
| 1778152526 | 2.78° C | 76% | 984.9 hPa | 0 mm | - | - | - |
| 1778151650 | 2.78° C | 76% | 984.9 hPa | 0 mm | - | - | - |
| 1778150720 | 2.22° C | 73% | 984.3 hPa | 0 mm | - | - | - |
| 1778149844 | 2.78° C | 72% | 985.3 hPa | 0 mm | - | - | - |
| 1778148926 | 2.78° C | 72% | 985.3 hPa | 0 mm | - | - | - |
| 1778148053 | 2.78° C | 72% | 985.6 hPa | 0 mm | - | - | - |
| 1778147125 | 3.33° C | 71% | 986 hPa | 0 mm | - | - | - |
* Rain latest hour (hover to see other rain measurements)
** Current wind speed in m/s (hover to see current wind gust speed)